Time;durP1;ratioP1;P1;durP2;ratioP2;P2;SDS_P1;SDS_P2;PMS_P1;PMS_P2;Temp;Humidity;BMP_temperature;BMP_pressure;BME280_temperature;BME280_humidity;BME280_pressure;Samples;Min_cycle;Max_cycle;Signal;HPM_P1;HPM_P2
2021/10/01 00:01:04;;;;;;;0.50;0.30;;;12.60;99.90;;;;;;5074399;28;20819;-61
2021/10/01 00:03:37;;;;;;;1.60;0.43;;;12.50;99.90;;;;;;5073595;28;21033;-61
2021/10/01 00:06:25;;;;;;;0.80;0.40;;;12.40;99.90;;;;;;5075010;28;20526;-61
2021/10/01 00:08:55;;;;;;;0.70;0.40;;;12.20;99.90;;;;;;5075537;28;20432;-61
2021/10/01 00:11:24;;;;;;;0.98;0.50;;;11.80;99.90;;;;;;5074879;28;20479;-61
2021/10/01 00:13:52;;;;;;;0.60;0.40;;;11.60;99.90;;;;;;5074339;28;20427;-61
2021/10/01 00:16:20;;;;;;;0.80;0.30;;;11.40;99.90;;;;;;5073948;28;20423;-61
2021/10/01 00:18:58;;;;;;;1.70;0.40;;;11.30;99.90;;;;;;5075540;28;20518;-61
2021/10/01 00:21:31;;;;;;;0.70;0.30;;;11.30;99.90;;;;;;5074970;28;20412;-61
2021/10/01 00:24:07;;;;;;;0.90;0.40;;;11.30;99.90;;;;;;5075557;28;20431;-61
2021/10/01 00:29:26;;;;;;;0.50;0.30;;;11.40;99.90;;;;;;5075770;28;20438;-61
2021/10/01 00:32:04;;;;;;;0.70;0.30;;;11.40;99.90;;;;;;5075527;28;20489;-62
2021/10/01 00:34:38;;;;;;;0.90;0.30;;;11.30;99.90;;;;;;5075219;28;20872;-61
2021/10/01 00:37:06;;;;;;;0.83;0.30;;;11.30;99.90;;;;;;5074263;28;20420;-61
2021/10/01 00:39:39;;;;;;;0.50;0.30;;;11.30;99.90;;;;;;5074467;28;20416;-61
2021/10/01 00:42:07;;;;;;;0.80;0.38;;;11.40;99.90;;;;;;5073342;28;20706;-61
2021/10/01 00:44:41;;;;;;;1.20;0.30;;;11.60;99.90;;;;;;5072262;28;20439;-61
2021/10/01 00:47:12;;;;;;;0.60;0.30;;;11.80;99.90;;;;;;5072448;28;20508;-61
2021/10/01 00:49:40;;;;;;;0.60;0.30;;;12.00;99.90;;;;;;5073077;28;20423;-61
2021/10/01 00:52:10;;;;;;;0.65;0.30;;;12.00;99.90;;;;;;5073929;28;20431;-61
2021/10/01 00:54:43;;;;;;;0.70;0.40;;;12.00;99.90;;;;;;5074836;28;20822;-61
2021/10/01 00:57:11;;;;;;;0.65;0.30;;;11.90;99.90;;;;;;5075266;28;20487;-61
2021/10/01 00:59:42;;;;;;;0.98;0.32;;;11.90;99.90;;;;;;5074794;28;20431;-61
2021/10/01 01:02:09;;;;;;;1.02;0.30;;;11.90;99.90;;;;;;5073875;28;20449;-61
2021/10/01 01:04:41;;;;;;;0.60;0.40;;;11.70;99.90;;;;;;5073378;28;21003;-61
2021/10/01 01:07:17;;;;;;;1.60;0.40;;;11.50;99.90;;;;;;5073010;28;20431;-61
2021/10/01 01:09:52;;;;;;;0.80;0.50;;;11.40;99.90;;;;;;5075485;28;20430;-61
2021/10/01 01:12:33;;;;;;;0.60;0.32;;;11.20;99.90;;;;;;5075045;28;20432;-61
2021/10/01 01:15:09;;;;;;;0.50;0.30;;;11.10;99.90;;;;;;5074246;28;20426;-61
2021/10/01 01:17:43;;;;;;;1.13;0.40;;;11.00;99.90;;;;;;5074505;28;20465;-61
2021/10/01 01:20:14;;;;;;;0.70;0.40;;;11.10;99.90;;;;;;5073906;28;20497;-60
2021/10/01 01:22:53;;;;;;;0.70;0.40;;;11.00;99.90;;;;;;5073200;28;20424;-61
2021/10/01 01:25:45;;;;;;;0.70;0.40;;;10.90;99.90;;;;;;5074123;28;20499;-61
2021/10/01 01:28:41;;;;;;;1.10;0.40;;;11.00;99.90;;;;;;5074187;28;20481;-61
2021/10/01 01:31:22;;;;;;;0.60;0.40;;;10.80;99.90;;;;;;5074059;28;20502;-61
2021/10/01 01:33:53;;;;;;;0.70;0.40;;;11.10;99.90;;;;;;5074775;28;20438;-61
2021/10/01 01:36:20;;;;;;;0.73;0.40;;;11.10;99.90;;;;;;5074552;28;20431;-61
2021/10/01 01:38:52;;;;;;;0.70;0.40;;;11.10;99.90;;;;;;5073800;28;20428;-61
2021/10/01 01:41:22;;;;;;;1.50;0.40;;;11.00;99.90;;;;;;5074768;28;20422;-61
2021/10/01 01:43:55;;;;;;;0.63;0.30;;;10.70;99.90;;;;;;5075119;28;20882;-60
2021/10/01 01:46:27;;;;;;;0.63;0.30;;;10.60;99.90;;;;;;5075087;28;20481;-60
2021/10/01 01:48:56;;;;;;;0.70;0.40;;;10.50;99.90;;;;;;5073548;28;20465;-60
2021/10/01 01:51:25;;;;;;;0.60;0.30;;;10.30;99.90;;;;;;5073585;28;20431;-60
2021/10/01 01:53:53;;;;;;;2.00;0.40;;;10.20;99.90;;;;;;5073562;28;20807;-61
2021/10/01 01:56:21;;;;;;;0.80;0.40;;;10.10;99.90;;;;;;5071076;28;20423;-60
2021/10/01 01:58:50;;;;;;;0.80;0.40;;;10.00;99.90;;;;;;5072990;28;20504;-61
2021/10/01 02:01:18;;;;;;;0.60;0.40;;;10.20;99.90;;;;;;5072883;28;20776;-60
2021/10/01 02:03:46;;;;;;;0.93;0.40;;;10.20;99.90;;;;;;5072828;28;20779;-60
2021/10/01 02:06:16;;;;;;;0.60;0.40;;;10.10;99.90;;;;;;5073192;28;20430;-61
2021/10/01 02:08:44;;;;;;;1.80;0.50;;;10.10;99.90;;;;;;5073231;28;20473;-62
2021/10/01 02:11:12;;;;;;;0.60;0.32;;;10.10;99.90;;;;;;5072894;28;20842;-61
2021/10/01 02:13:41;;;;;;;0.90;0.40;;;10.00;99.90;;;;;;5072658;28;20481;-61
2021/10/01 02:16:11;;;;;;;0.60;0.40;;;9.90;99.90;;;;;;5072885;28;20469;-61
2021/10/01 02:18:40;;;;;;;1.40;0.40;;;9.90;99.90;;;;;;5071869;28;20541;-61
2021/10/01 02:21:09;;;;;;;0.50;0.30;;;9.90;99.90;;;;;;5071698;28;20777;-61
2021/10/01 02:23:38;;;;;;;1.10;0.40;;;9.80;99.90;;;;;;5071791;28;20428;-60
2021/10/01 02:28:58;;;;;;;0.60;0.30;;;9.90;99.90;;;;;;5075249;28;20500;-61
2021/10/01 02:31:33;;;;;;;1.60;0.30;;;9.90;99.90;;;;;;5074225;28;20477;-60
2021/10/01 02:34:03;;;;;;;1.00;0.35;;;9.90;99.90;;;;;;5076150;28;20915;-60
2021/10/01 02:36:31;;;;;;;0.65;0.30;;;10.00;99.90;;;;;;5076738;28;20485;-61
2021/10/01 02:39:00;;;;;;;0.50;0.30;;;10.10;99.90;;;;;;5076628;28;20512;-60
2021/10/01 02:41:27;;;;;;;0.70;0.40;;;10.10;99.90;;;;;;5076416;28;20734;-60
2021/10/01 02:43:55;;;;;;;0.90;0.30;;;10.10;99.90;;;;;;5077136;28;20427;-60
2021/10/01 02:46:22;;;;;;;0.80;0.40;;;10.00;99.90;;;;;;5077921;28;20435;-60
2021/10/01 02:48:50;;;;;;;0.50;0.30;;;9.90;99.90;;;;;;5077784;28;20429;-60
2021/10/01 02:51:21;;;;;;;2.10;0.32;;;9.90;99.90;;;;;;5077456;28;20423;-60
2021/10/01 02:53:55;;;;;;;0.80;0.30;;;9.80;99.90;;;;;;5077454;28;20492;-60
2021/10/01 02:56:28;;;;;;;0.50;0.30;;;9.80;99.90;;;;;;5077435;28;20431;-61
2021/10/01 02:58:58;;;;;;;0.60;0.30;;;9.70;99.90;;;;;;5077575;28;20434;-60
2021/10/01 03:01:29;;;;;;;1.30;0.40;;;9.70;99.90;;;;;;5077471;28;20427;-62
2021/10/01 03:04:01;;;;;;;1.00;0.40;;;9.70;99.90;;;;;;5078139;28;20435;-61
2021/10/01 03:06:33;;;;;;;0.50;0.30;;;9.70;99.90;;;;;;5077878;28;20452;-62
2021/10/01 03:09:01;;;;;;;0.73;0.30;;;9.70;99.90;;;;;;5077414;28;20431;-62
2021/10/01 03:11:31;;;;;;;0.60;0.38;;;9.80;99.90;;;;;;5076971;28;20477;-62
2021/10/01 03:14:00;;;;;;;0.60;0.30;;;9.80;99.90;;;;;;5076939;28;20423;-61
2021/10/01 03:16:28;;;;;;;0.50;0.30;;;9.80;99.90;;;;;;5077471;28;20423;-62
2021/10/01 03:18:57;;;;;;;0.80;0.30;;;9.80;99.90;;;;;;5077569;28;20863;-61
2021/10/01 03:21:25;;;;;;;0.65;0.40;;;10.20;99.90;;;;;;5076987;28;20839;-61
2021/10/01 03:23:53;;;;;;;0.60;0.40;;;10.30;99.90;;;;;;5077168;28;20427;-61
2021/10/01 03:26:22;;;;;;;0.80;0.30;;;10.50;99.90;;;;;;5075931;28;20793;-61
2021/10/01 03:28:51;;;;;;;0.60;0.30;;;10.60;99.90;;;;;;5075857;28;20431;-61
2021/10/01 03:31:18;;;;;;;0.60;0.40;;;10.80;99.90;;;;;;5075801;28;20485;-61
2021/10/01 03:33:46;;;;;;;0.50;0.30;;;10.60;99.90;;;;;;5075836;28;20831;-62
2021/10/01 03:36:14;;;;;;;0.60;0.40;;;10.60;99.90;;;;;;5075614;28;20423;-62
2021/10/01 03:38:42;;;;;;;1.30;0.30;;;10.60;99.90;;;;;;5075815;28;20427;-62
2021/10/01 03:41:09;;;;;;;0.70;0.40;;;10.70;99.90;;;;;;5076713;28;20431;-61
2021/10/01 03:43:37;;;;;;;1.10;0.40;;;11.00;99.90;;;;;;5076775;28;20432;-60
2021/10/01 03:46:05;;;;;;;0.50;0.30;;;11.20;99.90;;;;;;5076473;28;20892;-60
2021/10/01 03:48:33;;;;;;;0.80;0.40;;;11.30;99.90;;;;;;5075763;28;20430;-59
2021/10/01 03:51:00;;;;;;;0.70;0.40;;;11.30;99.90;;;;;;5075252;28;20457;-62
2021/10/01 03:53:30;;;;;;;0.55;0.30;;;11.30;99.90;;;;;;5074916;28;20435;-60
2021/10/01 03:55:57;;;;;;;0.60;0.30;;;11.30;99.90;;;;;;5075299;28;20904;-60
2021/10/01 03:58:25;;;;;;;1.30;0.38;;;11.30;99.90;;;;;;5075853;28;20457;-61
2021/10/01 04:00:52;;;;;;;0.70;0.40;;;11.10;99.90;;;;;;5075800;28;20426;-61
2021/10/01 04:03:21;;;;;;;0.40;0.30;;;11.00;99.90;;;;;;5076191;28;20785;-61
2021/10/01 04:05:48;;;;;;;1.70;0.40;;;10.80;99.90;;;;;;5075866;28;20428;-61
2021/10/01 04:08:16;;;;;;;0.70;0.30;;;10.90;99.90;;;;;;5075327;28;20781;-61
2021/10/01 04:10:43;;;;;;;2.00;0.30;;;10.70;99.90;;;;;;5076616;28;20443;-61
2021/10/01 04:13:11;;;;;;;1.10;0.40;;;10.80;99.90;;;;;;5076037;28;20436;-61
2021/10/01 04:15:38;;;;;;;0.50;0.30;;;10.90;99.90;;;;;;5075389;28;20727;-62
2021/10/01 04:18:06;;;;;;;0.52;0.40;;;11.10;99.90;;;;;;5074358;28;20748;-61
2021/10/01 04:20:36;;;;;;;0.63;0.40;;;11.30;99.90;;;;;;5074526;28;20423;-61
2021/10/01 04:23:04;;;;;;;0.80;0.30;;;11.50;99.90;;;;;;5074624;28;20424;-61
2021/10/01 04:25:32;;;;;;;0.70;0.40;;;11.60;99.90;;;;;;5074487;28;20430;-61
2021/10/01 04:27:59;;;;;;;1.15;0.40;;;12.00;99.90;;;;;;5073822;28;20615;-60
2021/10/01 04:30:27;;;;;;;0.60;0.30;;;11.80;99.90;;;;;;5074844;28;20500;-60
2021/10/01 04:33:01;;;;;;;0.70;0.40;;;11.80;99.90;;;;;;5075276;28;20508;-60
2021/10/01 04:35:28;;;;;;;2.20;0.40;;;11.80;99.90;;;;;;5075390;28;20427;-60
2021/10/01 04:37:57;;;;;;;0.50;0.30;;;11.90;99.90;;;;;;5075308;28;20485;-60
2021/10/01 04:40:25;;;;;;;1.30;0.40;;;11.90;99.90;;;;;;5075579;28;20438;-62
2021/10/01 04:42:52;;;;;;;0.70;0.40;;;11.50;99.90;;;;;;5075005;28;20424;-61
2021/10/01 04:45:19;;;;;;;1.70;0.40;;;11.20;99.90;;;;;;5075448;28;20473;-61
2021/10/01 04:47:47;;;;;;;0.80;0.40;;;10.80;99.90;;;;;;5075506;28;20493;-62
2021/10/01 04:50:14;;;;;;;1.30;0.50;;;10.60;99.90;;;;;;5075635;28;20428;-61
2021/10/01 04:52:42;;;;;;;0.60;0.40;;;10.70;99.90;;;;;;5075185;28;20438;-61
2021/10/01 04:55:11;;;;;;;0.60;0.40;;;10.60;99.90;;;;;;5074478;28;20419;-61
2021/10/01 04:57:38;;;;;;;2.00;0.40;;;10.60;99.90;;;;;;5074655;28;20484;-61
2021/10/01 05:00:07;;;;;;;0.80;0.50;;;10.60;99.90;;;;;;5074614;28;20415;-61
2021/10/01 05:02:34;;;;;;;0.80;0.43;;;10.60;99.90;;;;;;5073592;28;20493;-61
2021/10/01 05:05:03;;;;;;;1.40;0.50;;;10.80;99.90;;;;;;5073172;28;20415;-62
2021/10/01 05:07:31;;;;;;;1.50;0.50;;;11.00;99.90;;;;;;5073153;28;20437;-62
2021/10/01 05:09:59;;;;;;;0.73;0.40;;;11.30;99.90;;;;;;5073304;28;20488;-62
2021/10/01 05:12:28;;;;;;;1.20;0.40;;;11.50;99.90;;;;;;5073407;28;20703;-61
2021/10/01 05:14:55;;;;;;;0.60;0.40;;;11.60;99.90;;;;;;5071876;28;20427;-61
2021/10/01 05:17:23;;;;;;;0.73;0.43;;;11.50;99.90;;;;;;5074852;28;20423;-61
2021/10/01 05:19:57;;;;;;;0.70;0.40;;;11.40;99.90;;;;;;5074635;28;20435;-62
2021/10/01 05:22:24;;;;;;;0.60;0.40;;;11.20;99.90;;;;;;5072639;28;20472;-62
2021/10/01 05:24:52;;;;;;;0.70;0.40;;;11.30;99.90;;;;;;5074702;28;21061;-62
2021/10/01 05:27:29;;;;;;;0.75;0.40;;;11.30;99.90;;;;;;5073336;28;20415;-61
2021/10/01 05:30:12;;;;;;;1.20;0.50;;;11.40;99.90;;;;;;5074032;28;20480;-62
2021/10/01 05:36:15;;;;;;;0.80;0.40;;;11.30;99.90;;;;;;5072801;28;20423;-62
2021/10/01 05:38:58;;;;;;;1.70;0.60;;;11.40;99.90;;;;;;5068308;28;20434;-61
2021/10/01 05:41:43;;;;;;;0.98;0.50;;;11.30;99.90;;;;;;5073055;28;20424;-62
2021/10/01 05:47:50;;;;;;;0.68;0.50;;;10.70;99.90;;;;;;5061031;28;20419;-61
2021/10/01 05:50:54;;;;;;;0.60;0.40;;;10.40;99.90;;;;;;5054782;28;20869;-61
2021/10/01 05:56:53;;;;;;;1.38;0.50;;;10.50;99.90;;;;;;5022852;28;20426;-62
2021/10/01 05:59:38;;;;;;;0.90;0.40;;;10.50;99.90;;;;;;5061451;28;20921;-62
2021/10/01 06:02:16;;;;;;;0.70;0.40;;;10.50;99.90;;;;;;5070174;28;20425;-61
2021/10/01 06:05:03;;;;;;;0.70;0.40;;;10.30;99.90;;;;;;5054313;28;20428;-62
2021/10/01 06:07:51;;;;;;;0.70;0.40;;;10.60;99.90;;;;;;5056805;28;20472;-61
2021/10/01 06:10:47;;;;;;;0.60;0.40;;;10.50;99.90;;;;;;5055999;28;20452;-61
2021/10/01 06:13:31;;;;;;;1.40;0.40;;;10.70;99.90;;;;;;5056527;28;20436;-62
2021/10/01 06:18:59;;;;;;;0.80;0.43;;;10.30;99.90;;;;;;5075119;28;20509;-62
2021/10/01 06:21:46;;;;;;;0.75;0.50;;;10.20;99.90;;;;;;5075810;28;20459;-62
2021/10/01 06:27:19;;;;;;;1.13;0.50;;;10.20;99.90;;;;;;5055656;28;20749;-61
2021/10/01 06:30:21;;;;;;;0.73;0.47;;;10.00;99.90;;;;;;5062974;28;20451;-61
2021/10/01 06:36:22;;;;;;;0.80;0.40;;;10.10;99.90;;;;;;5075042;28;20484;-60
2021/10/01 06:45:06;;;;;;;0.63;0.50;;;10.40;99.90;;;;;;5053822;28;20421;-60
2021/10/01 06:51:23;;;;;;;1.30;0.40;;;10.50;99.90;;;;;;5054739;28;20413;-61
2021/10/01 08:18:38;;;;;;;0.70;0.40;;;12.90;99.90;;;;;;5059738;28;20846;-65
2021/10/01 08:21:25;;;;;;;0.60;0.30;;;13.40;99.90;;;;;;5074316;28;20423;-65
2021/10/01 08:27:09;;;;;;;0.90;0.40;;;13.60;99.90;;;;;;5072841;28;20956;-64
2021/10/01 08:33:05;;;;;;;0.75;0.40;;;13.70;99.90;;;;;;5067029;28;20870;-64
2021/10/01 08:35:41;;;;;;;0.60;0.40;;;13.70;99.90;;;;;;5055376;28;20432;-63
2021/10/01 08:44:10;;;;;;;1.75;0.40;;;14.20;99.90;;;;;;5071553;28;20442;-65
2021/10/01 08:52:34;;;;;;;1.60;0.40;;;14.70;99.90;;;;;;5070739;28;20477;-63
2021/10/01 08:55:12;;;;;;;0.73;0.35;;;14.70;99.90;;;;;;5071339;28;20518;-64
2021/10/01 08:57:51;;;;;;;0.90;0.40;;;14.80;99.90;;;;;;5069418;28;20412;-67
2021/10/01 09:01:05;;;;;;;0.60;0.40;;;14.80;99.90;;;;;;5072310;28;20411;-65
2021/10/01 09:04:29;;;;;;;0.50;0.30;;;14.60;99.90;;;;;;5060188;28;20425;-64
2021/10/01 09:07:24;;;;;;;1.50;0.40;;;14.70;99.90;;;;;;5051187;28;20421;-64
2021/10/01 09:10:15;;;;;;;0.70;0.40;;;14.80;99.90;;;;;;5051442;28;20425;-64
2021/10/01 09:16:06;;;;;;;0.77;0.30;;;15.00;99.90;;;;;;5048953;28;20797;-64
2021/10/01 09:18:51;;;;;;;0.70;0.40;;;15.40;99.90;;;;;;5060766;28;20435;-64
2021/10/01 09:24:59;;;;;;;0.77;0.30;;;15.70;99.90;;;;;;5071430;28;20827;-64
2021/10/01 09:27:57;;;;;;;0.95;0.40;;;15.70;99.90;;;;;;5072351;28;20513;-64
2021/10/01 09:31:05;;;;;;;0.60;0.40;;;15.90;99.90;;;;;;5068605;28;20834;-59
2021/10/01 09:36:35;;;;;;;0.60;0.40;;;16.30;99.90;;;;;;5072766;28;20453;-57
2021/10/01 09:42:33;;;;;;;1.30;0.30;;;16.80;99.90;;;;;;5048531;28;20423;-58
2021/10/01 09:51:35;;;;;;;0.50;0.30;;;17.50;99.90;;;;;;5068127;28;20830;-57
2021/10/01 09:55:17;;;;;;;0.50;0.30;;;17.60;99.90;;;;;;5062922;28;20496;-58
2021/10/01 09:58:27;;;;;;;0.50;0.30;;;17.80;99.90;;;;;;5028485;28;20413;-56
2021/10/01 10:01:36;;;;;;;0.60;0.30;;;18.20;99.90;;;;;;5067973;28;20462;-61
2021/10/01 10:04:25;;;;;;;1.10;0.30;;;18.50;99.90;;;;;;5064770;28;20504;-59
2021/10/01 10:10:11;;;;;;;0.75;0.40;;;18.90;99.90;;;;;;5071917;28;20505;-60
2021/10/01 10:13:02;;;;;;;0.60;0.30;;;19.00;99.90;;;;;;5071617;28;20731;-60
2021/10/01 10:16:16;;;;;;;2.00;0.40;;;18.80;99.90;;;;;;5072890;28;20439;-60
2021/10/01 10:18:54;;;;;;;0.65;0.40;;;18.70;99.90;;;;;;5070310;28;20449;-52
2021/10/01 10:21:31;;;;;;;0.57;0.30;;;18.80;99.90;;;;;;5070987;28;20545;-50
2021/10/01 10:24:06;;;;;;;0.70;0.40;;;18.70;99.90;;;;;;5068619;28;20502;-54
2021/10/01 10:26:59;;;;;;;1.10;0.30;;;18.80;99.90;;;;;;5059059;28;20843;-53
2021/10/01 10:29:51;;;;;;;0.60;0.30;;;18.80;99.90;;;;;;5073246;28;20428;-55
2021/10/01 10:32:45;;;;;;;1.58;0.30;;;18.90;99.90;;;;;;5073942;28;20577;-51
2021/10/01 10:35:37;;;;;;;0.90;0.30;;;18.90;99.90;;;;;;5072263;28;20722;-57
2021/10/01 10:38:35;;;;;;;1.00;0.30;;;19.10;99.90;;;;;;5072385;28;20786;-53
2021/10/01 10:41:36;;;;;;;0.70;0.30;;;19.10;99.90;;;;;;5060685;28;20861;-56
2021/10/01 10:44:44;;;;;;;0.63;0.30;;;19.40;99.90;;;;;;5051054;28;20895;-50
2021/10/01 10:47:58;;;;;;;0.50;0.30;;;19.60;99.90;;;;;;5064202;28;20419;-53
2021/10/01 10:50:39;;;;;;;0.50;0.30;;;19.80;99.90;;;;;;5041605;28;20429;-54
2021/10/01 10:53:33;;;;;;;0.52;0.30;;;20.00;99.90;;;;;;5052192;28;20504;-53
2021/10/01 10:56:25;;;;;;;1.00;0.40;;;20.10;99.90;;;;;;5070256;28;20431;-51
2021/10/01 10:59:30;;;;;;;0.80;0.40;;;20.10;99.90;;;;;;5069455;28;20434;-51
2021/10/01 11:02:33;;;;;;;0.55;0.30;;;20.00;99.90;;;;;;5067752;28;20498;-51
2021/10/01 11:05:30;;;;;;;0.63;0.30;;;20.20;99.90;;;;;;5060149;28;20423;-48
2021/10/01 11:08:26;;;;;;;0.50;0.30;;;20.20;99.90;;;;;;5061252;28;20442;-52
2021/10/01 11:11:00;;;;;;;0.47;0.20;;;20.30;99.90;;;;;;5061182;28;20764;-53
2021/10/01 11:16:29;;;;;;;0.80;0.20;;;20.70;99.90;;;;;;5070406;28;20412;-54
2021/10/01 11:19:16;;;;;;;0.60;0.30;;;20.80;99.90;;;;;;5074838;28;20522;-55
2021/10/01 11:21:54;;;;;;;0.43;0.30;;;20.70;99.90;;;;;;5056506;28;20793;-55
2021/10/01 11:24:35;;;;;;;1.30;0.23;;;20.80;99.90;;;;;;5073154;28;20431;-55
2021/10/01 11:27:05;;;;;;;0.50;0.30;;;21.00;99.90;;;;;;5072033;28;20714;-52
2021/10/01 11:30:18;;;;;;;1.20;0.30;;;20.90;99.90;;;;;;5066413;28;20781;-55
2021/10/01 11:32:50;;;;;;;1.10;0.20;;;20.90;99.90;;;;;;5070596;28;20443;-56
2021/10/01 11:38:33;;;;;;;0.40;0.20;;;21.10;99.90;;;;;;5070023;28;20742;-57
2021/10/01 11:41:15;;;;;;;0.60;0.30;;;21.10;99.90;;;;;;5071313;28;20416;-56
2021/10/01 11:44:06;;;;;;;0.70;0.30;;;21.20;99.90;;;;;;5073105;28;20526;-56
2021/10/01 11:46:38;;;;;;;0.40;0.20;;;21.40;99.90;;;;;;5073468;28;20419;-57
2021/10/01 11:49:37;;;;;;;1.00;0.30;;;21.40;99.90;;;;;;5068146;28;20748;-56
2021/10/01 11:52:16;;;;;;;0.60;0.20;;;21.50;99.90;;;;;;5060210;28;20430;-57
2021/10/01 11:55:21;;;;;;;1.65;0.30;;;21.80;99.90;;;;;;5070773;28;20454;-56
2021/10/01 11:57:59;;;;;;;0.47;0.20;;;22.10;99.90;;;;;;5054890;28;20851;-56
2021/10/01 12:00:35;;;;;;;0.50;0.20;;;22.00;99.90;;;;;;5054040;28;20425;-54
2021/10/01 12:03:24;;;;;;;0.40;0.20;;;22.10;99.90;;;;;;5053061;28;20504;-53
2021/10/01 12:06:10;;;;;;;0.40;0.20;;;21.90;99.90;;;;;;5071307;28;20441;-52
2021/10/01 12:08:45;;;;;;;0.50;0.30;;;21.60;99.90;;;;;;5071056;28;20419;-55
2021/10/01 12:11:30;;;;;;;0.47;0.20;;;21.50;99.30;;;;;;5074241;28;20423;-56
2021/10/01 12:14:13;;;;;;;0.65;0.20;;;21.30;98.50;;;;;;5071578;28;20423;-52
2021/10/01 12:16:42;;;;;;;0.40;0.20;;;21.30;97.80;;;;;;5071725;28;20770;-55
2021/10/01 12:19:23;;;;;;;0.50;0.30;;;21.30;98.00;;;;;;5074059;28;20438;-56
2021/10/01 12:22:04;;;;;;;0.40;0.20;;;21.30;96.80;;;;;;5074526;28;20525;-57
2021/10/01 12:24:46;;;;;;;0.40;0.30;;;21.20;97.10;;;;;;5074522;28;20908;-57
2021/10/01 12:27:17;;;;;;;0.40;0.20;;;21.30;99.90;;;;;;5075441;28;20427;-58
2021/10/01 12:29:48;;;;;;;0.60;0.25;;;21.10;96.80;;;;;;5071291;28;20886;-54
2021/10/01 12:32:29;;;;;;;0.50;0.20;;;21.10;95.50;;;;;;5071538;28;20427;-57
2021/10/01 12:35:10;;;;;;;0.55;0.30;;;21.20;96.40;;;;;;5070758;28;20482;-56
2021/10/01 12:37:42;;;;;;;0.60;0.30;;;21.10;97.20;;;;;;5071363;28;20819;-56
2021/10/01 12:40:19;;;;;;;1.10;0.63;;;21.10;97.60;;;;;;5073192;28;20422;-54
2021/10/01 12:43:11;;;;;;;0.70;0.20;;;21.10;98.40;;;;;;5070668;28;20439;-54
2021/10/01 12:45:41;;;;;;;0.50;0.28;;;21.30;98.60;;;;;;5070890;28;20424;-56
2021/10/01 12:48:28;;;;;;;0.50;0.20;;;21.50;97.50;;;;;;5070704;28;20718;-53
2021/10/01 12:51:04;;;;;;;0.52;0.30;;;21.50;98.20;;;;;;5067591;28;20811;-55
2021/10/01 12:53:44;;;;;;;0.40;0.20;;;21.60;98.70;;;;;;5067878;28;20827;-57
2021/10/01 12:56:38;;;;;;;0.63;0.30;;;21.70;96.10;;;;;;5068428;28;20419;-53
2021/10/01 12:59:09;;;;;;;0.60;0.40;;;21.50;95.50;;;;;;5067443;28;20608;-52
2021/10/01 13:01:44;;;;;;;0.50;0.20;;;21.40;95.30;;;;;;5068166;28;20447;-55
2021/10/01 13:04:14;;;;;;;0.50;0.30;;;21.40;96.70;;;;;;5069075;28;20540;-52
2021/10/01 13:07:03;;;;;;;0.90;0.30;;;21.40;96.10;;;;;;5068337;28;21050;-54
2021/10/01 13:09:54;;;;;;;0.50;0.30;;;21.50;95.70;;;;;;5070330;28;20566;-53
2021/10/01 13:12:52;;;;;;;0.63;0.30;;;21.50;96.30;;;;;;5068740;28;20743;-53
2021/10/01 13:15:29;;;;;;;2.00;0.40;;;21.70;96.80;;;;;;5071462;28;20496;-56
2021/10/01 13:18:13;;;;;;;1.00;0.30;;;21.50;95.80;;;;;;5070428;28;20431;-59
2021/10/01 13:21:08;;;;;;;0.50;0.30;;;21.40;97.40;;;;;;5071241;28;20419;-60
2021/10/01 13:23:42;;;;;;;0.50;0.30;;;21.40;97.00;;;;;;5070500;28;20854;-59
2021/10/01 13:26:33;;;;;;;0.60;0.30;;;21.40;97.00;;;;;;5066010;28;20705;-59
2021/10/01 13:29:06;;;;;;;1.00;0.40;;;21.30;97.80;;;;;;5064451;28;20475;-58
2021/10/01 13:31:44;;;;;;;0.60;0.30;;;21.30;97.70;;;;;;5065831;28;20501;-59
2021/10/01 13:34:16;;;;;;;0.70;0.30;;;21.30;98.00;;;;;;5067079;28;20443;-58
2021/10/01 13:36:47;;;;;;;0.50;0.30;;;21.40;97.60;;;;;;5067938;28;20485;-59
2021/10/01 13:39:21;;;;;;;0.80;0.40;;;21.40;98.60;;;;;;5068420;28;20431;-60
2021/10/01 13:41:51;;;;;;;0.50;0.30;;;21.20;98.90;;;;;;5064885;28;20484;-59
2021/10/01 13:44:22;;;;;;;0.70;0.38;;;21.20;99.20;;;;;;5065656;28;20996;-58
2021/10/01 13:47:03;;;;;;;0.70;0.30;;;21.20;99.90;;;;;;5064264;28;20431;-52
2021/10/01 13:49:34;;;;;;;0.77;0.30;;;21.20;99.90;;;;;;5069554;28;20758;-55
2021/10/01 13:52:12;;;;;;;0.70;0.40;;;21.20;99.90;;;;;;5069704;28;20466;-58
2021/10/01 13:54:44;;;;;;;0.60;0.30;;;21.20;99.90;;;;;;5069323;28;20423;-52
2021/10/01 13:57:24;;;;;;;0.60;0.40;;;21.30;99.90;;;;;;5069637;28;20467;-53
2021/10/01 14:00:05;;;;;;;0.63;0.30;;;21.40;99.90;;;;;;5066459;28;20459;-51
2021/10/01 14:02:55;;;;;;;1.30;0.40;;;21.40;99.90;;;;;;5069381;28;20704;-54
2021/10/01 14:08:16;;;;;;;0.75;0.50;;;21.40;99.90;;;;;;5058566;28;20465;-52
2021/10/01 14:11:04;;;;;;;1.85;0.40;;;21.40;99.90;;;;;;5065162;28;20455;-53
2021/10/01 14:13:43;;;;;;;1.20;0.40;;;21.40;99.90;;;;;;5065267;28;20720;-54
2021/10/01 14:16:22;;;;;;;0.60;0.30;;;21.50;99.90;;;;;;5045396;28;20733;-57
2021/10/01 14:18:54;;;;;;;0.70;0.40;;;21.40;99.90;;;;;;5059160;28;20749;-51
2021/10/01 14:21:29;;;;;;;0.70;0.40;;;21.30;99.90;;;;;;5067941;28;20415;-53
2021/10/01 14:24:06;;;;;;;0.60;0.40;;;21.30;99.90;;;;;;5071472;28;20501;-56
2021/10/01 14:26:42;;;;;;;1.20;0.50;;;21.30;99.90;;;;;;5065804;28;20434;-59
2021/10/01 14:29:13;;;;;;;0.82;0.55;;;21.30;99.90;;;;;;5070967;28;20449;-57
2021/10/01 14:31:56;;;;;;;0.93;0.50;;;21.40;99.90;;;;;;5073480;28;20438;-57
2021/10/01 14:34:35;;;;;;;1.40;0.50;;;21.40;99.90;;;;;;5063816;28;20432;-50
2021/10/01 14:37:25;;;;;;;0.85;0.50;;;21.50;99.90;;;;;;5072780;28;20455;-53
2021/10/01 14:39:53;;;;;;;0.70;0.50;;;21.50;99.90;;;;;;5074141;28;20823;-52
2021/10/01 14:42:25;;;;;;;0.70;0.50;;;21.50;99.90;;;;;;5061444;28;20435;-52
2021/10/01 14:44:56;;;;;;;0.90;0.50;;;21.50;99.90;;;;;;5073120;28;20555;-51
2021/10/01 14:47:33;;;;;;;1.70;0.50;;;21.50;99.90;;;;;;5068815;28;20427;-54
2021/10/01 14:50:19;;;;;;;0.70;0.50;;;21.50;99.90;;;;;;5069638;28;20489;-56
2021/10/01 14:52:55;;;;;;;1.13;0.50;;;21.60;99.90;;;;;;5066812;28;20437;-54
2021/10/01 14:55:30;;;;;;;1.10;0.50;;;21.50;99.90;;;;;;5062195;28;20457;-56
2021/10/01 14:58:13;;;;;;;1.20;0.60;;;21.50;99.90;;;;;;5068277;28;20503;-54
2021/10/01 15:00:52;;;;;;;2.10;0.70;;;21.50;99.90;;;;;;5072688;28;20526;-55
2021/10/01 15:03:29;;;;;;;1.00;0.60;;;21.50;99.90;;;;;;5074120;28;20439;-55
2021/10/01 15:08:56;;;;;;;1.20;0.65;;;21.50;99.90;;;;;;5070461;28;20850;-52
2021/10/01 15:11:29;;;;;;;2.28;0.70;;;21.40;99.90;;;;;;5068592;28;20430;-48
2021/10/01 15:14:07;;;;;;;0.98;0.60;;;21.40;99.90;;;;;;5071918;28;20511;-52
2021/10/01 15:16:48;;;;;;;1.83;0.70;;;21.30;99.90;;;;;;5059353;28;20439;-50
2021/10/01 15:19:21;;;;;;;0.80;0.50;;;21.30;99.90;;;;;;5058302;28;20884;-54
2021/10/01 15:22:17;;;;;;;2.07;0.60;;;21.20;99.90;;;;;;5064746;28;20443;-51
2021/10/01 15:24:54;;;;;;;0.90;0.60;;;21.20;99.90;;;;;;5071293;28;20735;-51
2021/10/01 15:27:23;;;;;;;1.60;0.60;;;21.10;99.90;;;;;;5071421;28;20446;-52
2021/10/01 15:30:16;;;;;;;1.00;0.60;;;21.10;99.90;;;;;;5070355;28;20836;-47
2021/10/01 15:32:47;;;;;;;1.17;0.50;;;21.00;99.90;;;;;;5071528;28;20435;-49
2021/10/01 15:35:22;;;;;;;1.52;0.60;;;20.90;99.90;;;;;;5065647;28;20539;-52
2021/10/01 15:37:55;;;;;;;1.02;0.60;;;20.90;99.90;;;;;;5054835;28;20779;-57
2021/10/01 15:40:30;;;;;;;1.70;0.60;;;20.90;99.90;;;;;;5054221;28;20540;-50
2021/10/01 15:43:02;;;;;;;1.00;0.60;;;20.90;99.90;;;;;;5064893;28;20431;-49
2021/10/01 15:45:37;;;;;;;1.20;0.60;;;20.80;99.90;;;;;;5070450;28;20894;-49
2021/10/01 15:48:11;;;;;;;0.80;0.50;;;20.70;99.90;;;;;;5053995;28;20483;-46
2021/10/01 15:50:41;;;;;;;0.80;0.52;;;20.70;99.90;;;;;;5063436;28;20431;-51
2021/10/01 15:55:52;;;;;;;1.15;0.65;;;20.50;99.90;;;;;;5068859;28;20550;-48
2021/10/01 15:58:20;;;;;;;1.35;0.70;;;20.40;99.90;;;;;;5072843;28;20826;-56
2021/10/01 16:00:59;;;;;;;1.02;0.63;;;20.40;99.90;;;;;;5060262;28;20828;-55
2021/10/01 16:03:38;;;;;;;1.10;0.60;;;20.50;99.90;;;;;;5073438;28;20459;-56
2021/10/01 16:06:10;;;;;;;1.10;0.70;;;20.40;99.90;;;;;;5063592;28;20949;-55
2021/10/01 16:08:44;;;;;;;1.65;1.00;;;20.30;99.90;;;;;;5065569;28;20476;-54
2021/10/01 16:11:17;;;;;;;1.47;1.00;;;20.30;99.90;;;;;;5067092;28;20523;-54
2021/10/01 16:13:48;;;;;;;4.38;0.95;;;20.20;99.90;;;;;;5065763;28;20417;-55
2021/10/01 16:16:23;;;;;;;1.20;0.90;;;20.20;99.90;;;;;;5067698;28;20765;-51
2021/10/01 16:19:00;;;;;;;1.48;0.80;;;20.00;99.90;;;;;;5067677;28;20427;-52
2021/10/01 16:21:41;;;;;;;2.13;0.70;;;19.90;99.90;;;;;;5066908;28;20501;-54
2021/10/01 16:24:14;;;;;;;2.88;0.70;;;19.80;99.90;;;;;;5070334;28;20770;-54
2021/10/01 16:26:48;;;;;;;1.10;0.70;;;19.70;99.90;;;;;;5070897;28;20626;-53
2021/10/01 16:29:23;;;;;;;1.30;0.70;;;19.60;99.90;;;;;;5071912;28;20436;-56
2021/10/01 16:31:54;;;;;;;1.50;0.85;;;19.60;99.90;;;;;;5066679;28;20427;-52
2021/10/01 16:37:21;;;;;;;4.03;0.90;;;19.50;99.90;;;;;;5069126;28;20411;-56